Portada
METAR-TAF:

METAR-TAF

Aeroports :

Brighton, Anglaterra

latitud: 50-50N, longitud: 000-17W, altitud: 2 m

Observació

L'informe es va fer fa 7 hores i 41 minuts, a les 19:50 UTC
Vent 9 kt del Oest/Sud-Oest
Temperatura 10°C
Humitat 87%
Pressió 1007 hPa
Visibilitat 10 km o més
Núvols disperses a una alçada de 3200 ft

METAR: EGKA 061950Z 25009KT 9999 SCT032 10/08 Q1007

Hora: 03:31 (03:31 UTC)

Pronòstic

L'informe es va fer fa 10 hores i 28 minuts, a les 17:03 UTC
Pronòstic vàlid del 06 a les 18 UTC al 06 a les 20 UTC
Vent 15 kt del Sud-Oest
Visibilitat 10 km o més
Núvols disperses a una alçada de 2500 ft
Probabilitat 40% :
Temporalment
l' 06 a les 18 UTC al 06 a les 19 UTC
Vent 25 kt del Oest/Sud-Oest amb ràfegues de 35 kt
Visibilitat: 7000 m
xàfecs de pluja

TAF: EGKA 061703Z 0618/0620 23015KT 9999 SCT025 PROB40 TEMPO 0618/0619 24025G35KT 7000 SHRA

Observacions i pronòstics meteorològics de més de 4000 aeroports (METAR i TAF).

Les estacions disponibles són els punts grocs i vermells al mapa.

Posi el ratolí al punt desitjat per veure el nom de l'estació.

Feu clic per veure les observacions i els pronòstics meteorològics.

Per canviar el mapa: feu clic els botons verds amb una creu de color negre per apropar; al botó verd amb un guió per allunyar la imatge; o en les fletxes verdes per a mapes adjacents.


METAR-TAF: